Time;durP1;ratioP1;P1;durP2;ratioP2;P2;SDS_P1;SDS_P2;PMS_P1;PMS_P2;Temp;Humidity;BMP_temperature;BMP_pressure;BME280_temperature;BME280_humidity;BME280_pressure;Samples;Min_cycle;Max_cycle;Signal;HPM_P1;HPM_P2
2023/01/28 00:01:06;;;;;;;20.20;15.70;;;0.70;99.90;;;1.32;93.93;98467.63;5217695;28;20211;-56
2023/01/28 00:03:41;;;;;;;18.33;15.57;;;0.70;99.90;;;1.35;94.16;98468.81;5216068;28;20591;-56
2023/01/28 00:06:15;;;;;;;20.00;15.80;;;0.70;99.90;;;1.34;94.09;98469.56;5215661;28;20283;-56
2023/01/28 00:08:48;;;;;;;18.07;14.47;;;0.60;99.90;;;1.34;93.97;98462.00;5211583;28;20296;-57
2023/01/28 00:11:22;;;;;;;19.30;14.47;;;0.70;99.90;;;1.35;94.13;98465.41;5210534;28;20546;-56
2023/01/28 00:13:55;;;;;;;16.93;13.60;;;0.70;99.90;;;1.38;94.03;98462.31;5218576;28;20601;-59
2023/01/28 00:16:29;;;;;;;16.53;13.50;;;0.70;99.90;;;1.37;94.11;98463.03;5209276;28;20302;-55
2023/01/28 00:19:04;;;;;;;20.07;14.80;;;0.70;99.90;;;1.41;94.63;98460.13;5211699;28;20657;-59
2023/01/28 00:21:37;;;;;;;19.53;14.70;;;0.70;99.90;;;1.42;94.05;98456.84;5216249;28;20215;-56
2023/01/28 00:24:10;;;;;;;17.13;13.97;;;0.70;99.90;;;1.42;94.20;98467.81;5217312;28;20234;-58
2023/01/28 00:26:43;;;;;;;15.07;12.23;;;0.70;99.90;;;1.40;93.08;98463.34;5214193;28;20301;-57
2023/01/28 00:29:16;;;;;;;15.10;12.77;;;0.70;99.90;;;1.42;92.84;98464.41;5213318;28;20612;-58
2023/01/28 00:31:49;;;;;;;16.57;13.10;;;0.70;99.90;;;1.42;92.83;98457.72;5213492;28;20201;-57
2023/01/28 00:34:23;;;;;;;15.07;13.43;;;0.80;99.90;;;1.48;93.40;98462.50;5213827;28;20258;-58
2023/01/28 00:36:57;;;;;;;16.13;12.43;;;0.70;99.90;;;1.49;93.15;98459.28;5215498;28;20210;-58
2023/01/28 00:39:30;;;;;;;13.77;11.50;;;0.70;99.90;;;1.49;93.46;98459.28;5217336;28;20284;-55
2023/01/28 00:42:03;;;;;;;14.13;11.77;;;0.70;99.90;;;1.44;93.19;98460.44;5217239;28;20292;-55
2023/01/28 00:44:36;;;;;;;14.80;12.03;;;0.70;99.90;;;1.46;93.11;98457.31;5219700;28;20230;-57
2023/01/28 00:47:09;;;;;;;15.17;13.23;;;0.80;99.90;;;1.45;92.66;98452.13;5215285;28;20720;-58
2023/01/28 00:49:44;;;;;;;15.23;12.53;;;0.70;99.90;;;1.46;92.59;98454.81;5209300;28;20193;-59
2023/01/28 00:52:17;;;;;;;14.83;12.57;;;0.70;99.90;;;1.49;92.27;98459.28;5219013;28;20692;-58
2023/01/28 00:54:50;;;;;;;16.13;13.77;;;0.70;99.90;;;1.46;92.75;98463.97;5212633;28;20214;-57
2023/01/28 00:57:23;;;;;;;16.53;13.50;;;0.80;99.90;;;1.48;93.14;98457.47;5212436;28;20736;-57
2023/01/28 00:59:56;;;;;;;16.07;12.73;;;0.70;99.90;;;1.51;93.56;98457.78;5212632;28;20198;-57
2023/01/28 01:02:29;;;;;;;16.83;13.83;;;0.70;99.90;;;1.49;94.11;98460.16;5215884;28;20205;-57
2023/01/28 01:05:04;;;;;;;15.27;13.13;;;0.70;99.90;;;1.46;93.72;98454.81;5208618;28;20221;-59
2023/01/28 01:07:41;;;;;;;15.00;12.73;;;0.70;99.90;;;1.47;94.15;98455.69;5214506;28;20208;-55
2023/01/28 01:10:17;;;;;;;16.07;13.30;;;0.70;99.90;;;1.43;94.12;98458.63;5210851;28;20204;-59
2023/01/28 01:12:50;;;;;;;16.27;13.07;;;0.70;99.90;;;1.47;94.22;98465.78;5209930;28;20343;-59
2023/01/28 01:15:23;;;;;;;15.10;12.67;;;0.70;99.90;;;1.42;94.53;98461.88;5213246;28;20229;-56
2023/01/28 01:17:57;;;;;;;14.60;12.40;;;0.70;99.90;;;1.45;94.78;98460.56;5218162;28;20193;-57
2023/01/28 01:20:32;;;;;;;16.17;13.67;;;0.70;99.90;;;1.47;94.67;98455.69;5211373;28;20202;-57
2023/01/28 01:23:05;;;;;;;17.13;13.33;;;0.80;99.90;;;1.47;94.54;98460.72;5207944;28;20249;-58
2023/01/28 01:25:40;;;;;;;15.40;13.03;;;0.70;99.90;;;1.48;94.99;98463.38;5216969;28;20202;-56
2023/01/28 01:28:13;;;;;;;14.77;12.50;;;0.80;99.90;;;1.49;94.72;98464.31;5211722;28;20573;-57
2023/01/28 01:30:46;;;;;;;14.47;12.93;;;0.80;99.90;;;1.49;93.95;98466.81;5210267;28;20208;-58
2023/01/28 01:33:19;;;;;;;13.97;12.07;;;0.70;99.90;;;1.45;94.34;98465.59;5203373;28;20218;-57
2023/01/28 01:35:55;;;;;;;13.43;11.57;;;0.70;99.90;;;1.44;94.70;98467.97;5210688;28;20233;-56
2023/01/28 01:38:29;;;;;;;15.63;12.50;;;0.70;99.90;;;1.45;94.62;98465.59;5213844;28;20202;-54
2023/01/28 01:41:03;;;;;;;14.77;12.57;;;0.70;99.90;;;1.47;94.91;98471.69;5218272;28;20288;-57
2023/01/28 01:43:49;;;;;;;12.50;10.73;;;0.70;99.90;;;1.61;93.39;98478.13;5213471;28;20676;-59
2023/01/28 01:46:30;;;;;;;12.97;10.50;;;0.80;99.90;;;1.45;91.27;98479.81;5213876;28;20195;-57
2023/01/28 01:49:13;;;;;;;12.30;10.63;;;0.70;99.90;;;1.22;92.02;98478.34;5206896;28;20580;-56
2023/01/28 01:51:52;;;;;;;14.50;11.70;;;0.70;99.90;;;1.25;91.33;98478.66;5212244;28;20219;-59
2023/01/28 01:54:28;;;;;;;15.20;11.90;;;0.70;99.90;;;0.96;92.68;98483.22;5215935;28;20219;-59
2023/01/28 01:57:04;;;;;;;12.40;10.50;;;0.50;99.90;;;1.05;92.77;98478.25;5211859;28;20198;-57
2023/01/28 01:59:37;;;;;;;16.00;12.27;;;0.50;99.90;;;1.16;93.23;98476.84;5211430;28;20210;-59
2023/01/28 02:02:12;;;;;;;16.23;12.97;;;0.50;99.90;;;1.21;93.22;98481.63;5211385;28;20585;-59
2023/01/28 02:04:45;;;;;;;15.00;11.73;;;0.50;99.90;;;1.34;93.91;98484.69;5214648;28;20270;-58
2023/01/28 02:07:20;;;;;;;12.47;10.37;;;0.60;99.90;;;1.27;93.37;98482.25;5214775;28;20393;-57
2023/01/28 02:09:53;;;;;;;13.40;11.53;;;0.60;99.90;;;1.22;93.55;98483.41;5214125;28;20638;-57
2023/01/28 02:12:33;;;;;;;13.20;10.30;;;0.60;99.90;;;1.19;92.71;98488.13;5218554;28;20203;-57
2023/01/28 02:15:11;;;;;;;11.37;10.17;;;0.60;99.90;;;1.32;92.32;98488.66;5214356;28;20260;-58
2023/01/28 02:17:45;;;;;;;13.63;10.70;;;0.60;99.90;;;1.29;93.13;98485.81;5213223;28;20610;-57
2023/01/28 02:20:22;;;;;;;13.40;11.10;;;0.60;99.90;;;1.28;93.94;98493.22;5209485;28;20197;-60
2023/01/28 02:23:21;;;;;;;14.17;12.30;;;0.70;99.90;;;1.27;93.98;98491.44;5214295;28;20284;-55
2023/01/28 02:26:34;;;;;;;14.20;11.10;;;0.60;99.90;;;1.29;93.77;98492.50;5213135;28;20231;-59
2023/01/28 02:29:14;;;;;;;12.57;10.67;;;0.60;99.90;;;1.32;94.17;98495.31;5208050;28;20204;-57
2023/01/28 02:31:53;;;;;;;12.63;10.47;;;0.60;99.90;;;1.12;94.00;98490.75;5218352;28;20291;-58
2023/01/28 02:34:38;;;;;;;13.27;11.87;;;0.60;99.90;;;1.23;94.65;98484.28;5216656;28;20328;-58
2023/01/28 02:37:16;;;;;;;14.23;11.60;;;0.60;99.90;;;1.31;94.85;98496.91;5213209;28;20309;-60
2023/01/28 02:39:55;;;;;;;13.17;11.70;;;0.60;99.90;;;1.27;95.61;98487.28;5211914;28;20316;-59
2023/01/28 02:42:32;;;;;;;15.40;12.97;;;0.60;99.90;;;1.19;95.67;98483.09;5210494;28;20200;-56
2023/01/28 02:45:17;;;;;;;14.67;12.73;;;0.60;99.90;;;1.17;96.59;98488.69;5212913;28;20227;-57
2023/01/28 02:47:56;;;;;;;14.97;12.70;;;0.50;99.90;;;1.12;97.16;98486.59;5214443;28;20234;-57
2023/01/28 02:50:44;;;;;;;13.60;11.63;;;0.50;99.90;;;1.18;97.30;98481.31;5218061;28;20212;-56
2023/01/28 02:53:42;;;;;;;13.93;12.43;;;0.50;99.90;;;1.19;97.73;98488.13;5218309;28;20221;-56
2023/01/28 02:56:28;;;;;;;15.50;12.33;;;0.50;99.90;;;1.22;97.06;98485.03;5210549;28;20580;-58
2023/01/28 03:02:07;;;;;;;16.90;13.10;;;0.50;99.90;;;1.28;98.03;98489.06;5213315;28;20211;-60
2023/01/28 03:04:49;;;;;;;15.83;12.77;;;0.60;99.90;;;1.26;97.87;98489.63;5210939;28;20335;-60
2023/01/28 03:07:23;;;;;;;16.03;13.00;;;0.50;99.90;;;1.27;98.19;98496.47;5210817;28;20215;-60
2023/01/28 03:09:57;;;;;;;15.57;13.00;;;0.60;99.90;;;1.27;98.37;98497.34;5218959;28;20683;-60
2023/01/28 03:38:50;;;;;;;20.07;13.90;;;0.60;99.90;;;1.35;100.00;98490.59;5209929;28;20263;-59
2023/01/28 03:41:26;;;;;;;15.70;13.80;;;0.60;99.90;;;1.36;100.00;98497.41;5213582;28;20209;-58
2023/01/28 03:46:49;;;;;;;15.63;13.23;;;0.60;99.90;;;1.41;99.73;98502.94;5218367;28;20204;-57
2023/01/28 03:49:22;;;;;;;16.70;13.70;;;0.70;99.90;;;1.40;100.00;98504.53;5212174;28;20197;-58
2023/01/28 03:51:57;;;;;;;27.13;17.67;;;0.70;99.90;;;1.41;100.00;98508.84;5210717;28;20215;-59
2023/01/28 03:54:30;;;;;;;17.63;13.27;;;0.60;99.90;;;1.43;100.00;98509.00;5215923;28;20225;-56
2023/01/28 03:57:04;;;;;;;19.13;13.93;;;0.60;99.90;;;1.41;100.00;98518.91;5216158;28;20201;-57
2023/01/28 03:59:37;;;;;;;15.97;12.73;;;0.60;99.90;;;1.38;100.00;98516.09;5212144;28;20304;-57
2023/01/28 04:02:12;;;;;;;15.63;12.70;;;0.70;99.90;;;1.47;100.00;98513.63;5210514;28;20289;-58
2023/01/28 04:04:45;;;;;;;14.60;12.97;;;0.70;99.90;;;1.48;100.00;98512.88;5207300;28;20872;-59
2023/01/28 04:07:19;;;;;;;16.03;13.17;;;0.70;99.90;;;1.49;100.00;98514.69;5210542;28;20206;-59
2023/01/28 04:09:52;;;;;;;16.53;12.97;;;0.70;99.90;;;1.42;100.00;98508.09;5204111;28;20197;-59
2023/01/28 04:12:25;;;;;;;17.83;13.27;;;0.70;99.90;;;1.42;100.00;98512.25;5210894;28;20654;-56
2023/01/28 04:14:58;;;;;;;17.47;12.90;;;0.70;99.90;;;1.43;100.00;98509.00;5216138;28;20244;-59
2023/01/28 04:17:31;;;;;;;15.40;12.90;;;0.70;99.90;;;1.44;100.00;98506.66;5212918;28;20580;-60
2023/01/28 04:20:05;;;;;;;18.23;14.30;;;0.70;99.90;;;1.42;100.00;98514.78;5210395;28;20587;-59
2023/01/28 04:22:40;;;;;;;17.00;13.93;;;0.70;99.90;;;1.44;100.00;98510.78;5213851;28;20214;-60
2023/01/28 04:25:13;;;;;;;14.23;12.03;;;0.70;99.90;;;1.49;99.93;98517.19;5218108;28;20295;-59
2023/01/28 04:27:46;;;;;;;16.73;13.47;;;0.70;99.90;;;1.43;100.00;98509.00;5219679;28;20582;-60
2023/01/28 04:30:20;;;;;;;16.97;13.40;;;0.70;99.90;;;1.40;100.00;98513.72;5220616;28;20232;-58
2023/01/28 04:32:53;;;;;;;16.33;12.73;;;0.70;99.90;;;1.39;100.00;98527.06;5218383;28;20205;-60
2023/01/28 04:35:26;;;;;;;17.33;13.20;;;0.60;99.90;;;1.51;99.49;98531.69;5212728;28;20646;-61
2023/01/28 04:38:01;;;;;;;16.93;13.57;;;0.70;99.90;;;1.54;98.86;98534.53;5218276;28;20193;-60
2023/01/28 04:40:34;;;;;;;14.67;13.07;;;0.70;99.90;;;1.46;100.00;98537.00;5215592;28;20227;-61
2023/01/28 04:43:07;;;;;;;14.93;12.43;;;0.70;99.90;;;1.43;99.98;98534.16;5219129;28;20295;-61
2023/01/28 04:45:40;;;;;;;15.17;12.70;;;0.70;99.90;;;1.41;99.93;98540.69;5213254;28;20230;-60
2023/01/28 04:48:14;;;;;;;16.97;13.43;;;0.60;99.90;;;1.40;100.00;98543.94;5213880;28;20268;-61
2023/01/28 04:50:47;;;;;;;19.17;13.20;;;0.70;99.90;;;1.40;100.00;98549.84;5214035;28;20207;-60
2023/01/28 04:53:21;;;;;;;18.70;14.90;;;0.60;99.90;;;1.40;100.00;98544.81;5217051;28;20308;-60
2023/01/28 04:55:54;;;;;;;16.13;13.27;;;0.70;99.90;;;1.42;100.00;98547.50;5210161;28;20804;-60
2023/01/28 04:58:27;;;;;;;15.63;12.37;;;0.70;99.90;;;1.43;100.00;98549.28;5216941;28;20250;-61
2023/01/28 05:01:01;;;;;;;17.73;12.97;;;0.70;99.90;;;1.44;100.00;98549.47;5212185;28;20306;-61
2023/01/28 05:03:34;;;;;;;15.83;13.20;;;0.80;99.90;;;1.44;100.00;98541.91;5220959;28;20766;-61
2023/01/28 05:06:09;;;;;;;16.33;12.77;;;0.70;99.90;;;1.45;100.00;98548.72;5214601;28;20224;-61
2023/01/28 05:08:45;;;;;;;14.10;12.30;;;0.80;99.90;;;1.49;100.00;98544.91;5211988;28;20609;-61
2023/01/28 05:11:18;;;;;;;15.67;12.27;;;0.80;99.90;;;1.48;100.00;98553.19;5210667;28;20221;-60
2023/01/28 05:13:51;;;;;;;15.93;13.27;;;0.70;99.90;;;1.48;100.00;98548.13;5220517;28;20722;-60
2023/01/28 05:16:24;;;;;;;15.93;13.67;;;0.80;99.90;;;1.47;99.74;98553.91;5220015;28;20596;-60
2023/01/28 05:18:57;;;;;;;16.23;13.07;;;0.70;99.90;;;1.49;100.00;98560.00;5214681;28;20304;-61
2023/01/28 05:21:30;;;;;;;16.40;13.70;;;0.80;99.90;;;1.51;99.99;98548.44;5213090;28;20206;-61
2023/01/28 05:24:05;;;;;;;14.53;12.73;;;0.80;99.90;;;1.49;99.39;98554.97;5210018;28;20221;-59
2023/01/28 05:26:38;;;;;;;14.97;12.50;;;0.70;99.90;;;1.48;99.81;98550.66;5208451;28;20535;-61
2023/01/28 05:29:12;;;;;;;14.73;12.93;;;0.80;99.90;;;1.54;99.48;98559.72;5217521;28;20658;-61
2023/01/28 05:31:45;;;;;;;15.63;12.43;;;0.80;99.90;;;1.51;98.94;98551.84;5208152;28;20646;-61
2023/01/28 05:34:18;;;;;;;14.00;11.70;;;0.70;99.90;;;1.48;99.46;98553.19;5205556;28;20303;-60
2023/01/28 05:36:51;;;;;;;17.10;12.77;;;0.70;99.90;;;1.52;99.16;98555.28;5207126;28;20333;-59
2023/01/28 05:39:25;;;;;;;17.20;12.77;;;0.80;99.90;;;1.50;99.81;98556.75;5211198;28;20579;-58
2023/01/28 05:41:58;;;;;;;14.87;12.67;;;0.80;99.90;;;1.48;100.00;98553.19;5216896;28;20585;-58
2023/01/28 05:44:32;;;;;;;15.07;12.73;;;0.70;99.90;;;1.44;99.50;98551.09;5216644;28;20236;-60
2023/01/28 05:47:05;;;;;;;14.10;12.23;;;0.70;99.90;;;1.46;99.73;98558.06;5208548;28;20228;-61
2023/01/28 05:49:38;;;;;;;14.73;12.47;;;0.70;99.90;;;1.48;99.19;98553.19;5210052;28;20288;-61
2023/01/28 05:52:11;;;;;;;17.67;12.57;;;0.70;99.90;;;1.50;100.00;98550.09;5205593;28;20217;-60
2023/01/28 05:54:45;;;;;;;16.40;13.97;;;0.80;99.90;;;1.52;99.53;98560.34;5208835;28;20227;-61
2023/01/28 05:57:18;;;;;;;18.13;14.10;;;0.80;99.90;;;1.51;99.84;98545.94;5212770;28;20303;-61
2023/01/28 05:59:51;;;;;;;15.07;13.37;;;0.80;99.90;;;1.52;99.96;98556.19;5209364;28;20202;-58
2023/01/28 06:02:24;;;;;;;16.60;13.40;;;0.80;99.90;;;1.49;100.00;98549.94;5199858;28;20205;-58
2023/01/28 06:04:57;;;;;;;15.37;13.63;;;0.70;99.90;;;1.50;99.98;98564.31;5205568;28;20617;-57
2023/01/28 06:07:30;;;;;;;14.57;12.53;;;0.80;99.90;;;1.44;100.00;98562.06;5205929;28;20209;-54
2023/01/28 06:10:07;;;;;;;16.20;13.10;;;0.70;99.90;;;1.44;100.00;98572.13;5209722;28;20198;-58
2023/01/28 06:12:40;;;;;;;14.53;12.50;;;0.80;99.90;;;1.45;100.00;98563.81;5216822;28;20205;-57
2023/01/28 06:15:13;;;;;;;13.40;12.00;;;0.70;99.90;;;1.48;100.00;98578.34;5208949;28;20257;-59
2023/01/28 06:17:46;;;;;;;14.13;12.63;;;0.80;99.90;;;1.50;100.00;98581.94;5208236;28;20218;-60
2023/01/28 06:20:19;;;;;;;14.03;12.53;;;0.80;99.90;;;1.52;99.80;98590.56;5213493;28;20193;-61
2023/01/28 06:22:53;;;;;;;13.63;12.17;;;0.80;99.90;;;1.56;99.51;98592.66;5215953;28;20202;-58
2023/01/28 06:25:27;;;;;;;15.87;12.93;;;0.80;99.90;;;1.57;99.61;98594.41;5215385;28;20272;-59
2023/01/28 06:28:00;;;;;;;18.23;13.90;;;0.80;99.90;;;1.53;99.72;98587.28;5206838;28;20288;-61
2023/01/28 06:30:33;;;;;;;16.83;13.93;;;0.80;99.90;;;1.53;99.85;98598.25;5205452;28;20211;-60
2023/01/28 06:33:06;;;;;;;16.60;13.73;;;0.80;99.90;;;1.52;100.00;98600.63;5206884;28;20620;-58
2023/01/28 06:35:39;;;;;;;16.23;13.50;;;0.80;99.90;;;1.50;99.94;98608.00;5215402;28;20284;-55
2023/01/28 06:38:13;;;;;;;15.50;13.60;;;0.80;99.90;;;1.53;99.97;98612.47;5205403;28;20745;-59
2023/01/28 06:40:54;;;;;;;15.37;12.97;;;0.70;99.90;;;1.50;99.82;98619.72;5215436;28;20324;-58
2023/01/28 06:43:29;;;;;;;14.47;12.37;;;0.70;99.90;;;1.50;99.95;98628.16;5206875;28;20258;-60
2023/01/28 06:46:02;;;;;;;14.93;13.33;;;0.70;99.90;;;1.49;100.00;98625.50;5211477;28;20299;-60
2023/01/28 06:48:35;;;;;;;13.57;12.17;;;0.80;99.90;;;1.47;100.00;98622.81;5217485;28;20197;-60
2023/01/28 06:51:08;;;;;;;17.23;13.50;;;0.70;99.90;;;1.50;100.00;98628.16;5205690;28;20328;-59
2023/01/28 06:53:41;;;;;;;16.37;13.10;;;0.70;99.90;;;1.51;99.56;98629.06;5213791;28;20311;-60
2023/01/28 06:56:19;;;;;;;15.33;13.07;;;0.70;99.90;;;1.49;99.47;98631.44;5202300;28;20201;-61
2023/01/28 06:58:52;;;;;;;15.33;12.27;;;0.70;99.90;;;1.47;100.00;98639.56;5207339;28;20200;-59
2023/01/28 07:01:25;;;;;;;14.97;12.23;;;0.70;99.90;;;1.44;100.00;98635.09;5207075;28;20209;-61
2023/01/28 07:03:58;;;;;;;14.47;12.87;;;0.70;99.90;;;1.44;100.00;98631.69;5206799;28;20233;-58
2023/01/28 07:06:31;;;;;;;15.47;12.23;;;0.70;99.90;;;1.48;100.00;98633.78;5211605;28;20311;-57
2023/01/28 07:09:04;;;;;;;14.53;12.47;;;0.70;99.90;;;1.48;100.00;98634.66;5206198;28;20298;-60
2023/01/28 07:11:39;;;;;;;16.67;13.30;;;0.70;99.90;;;1.44;100.00;98641.75;5205825;28;20936;-57
2023/01/28 07:14:12;;;;;;;16.87;12.97;;;0.70;99.90;;;1.42;100.00;98638.19;5204181;28;20227;-59
2023/01/28 07:16:45;;;;;;;14.60;13.10;;;0.70;99.90;;;1.45;100.00;98638.50;5205969;28;20203;-61
2023/01/28 07:19:18;;;;;;;14.40;12.53;;;0.70;99.90;;;1.48;100.00;98643.84;5215036;28;20210;-59
2023/01/28 07:21:51;;;;;;;15.00;12.57;;;0.70;99.90;;;1.47;100.00;98644.59;5204457;28;20498;-58
2023/01/28 07:24:24;;;;;;;14.47;12.63;;;0.70;99.90;;;1.50;100.00;98643.28;5200985;28;20615;-59
2023/01/28 07:26:58;;;;;;;14.93;12.73;;;0.70;99.90;;;1.50;100.00;98647.44;5209267;28;20233;-57
2023/01/28 07:29:31;;;;;;;15.63;12.63;;;0.70;99.90;;;1.49;100.00;98655.72;5213256;28;20616;-57
2023/01/28 07:32:06;;;;;;;13.43;11.50;;;0.70;99.90;;;1.48;100.00;98657.31;5203493;28;20647;-60
2023/01/28 07:34:41;;;;;;;13.97;11.20;;;0.70;99.90;;;1.51;100.00;98660.16;5205997;28;20315;-61
2023/01/28 07:37:15;;;;;;;13.90;12.03;;;0.70;99.90;;;1.46;100.00;98657.91;5208011;28;20718;-61
2023/01/28 07:39:48;;;;;;;14.00;12.27;;;0.70;99.90;;;1.51;100.00;98661.78;5212436;28;20287;-61
2023/01/28 07:42:22;;;;;;;14.63;12.60;;;0.80;99.90;;;1.56;100.00;98663.19;5211039;28;20328;-58
2023/01/28 07:44:55;;;;;;;19.27;14.00;;;0.80;99.90;;;1.54;100.00;98657.06;5204510;28;20333;-57
2023/01/28 07:47:28;;;;;;;14.77;12.67;;;0.80;99.90;;;1.60;100.00;98654.31;5211241;28;20221;-57
2023/01/28 07:50:01;;;;;;;12.07;10.80;;;0.80;99.90;;;1.64;100.00;98661.47;5210217;28;20212;-60
2023/01/28 07:52:37;;;;;;;15.53;11.97;;;0.80;99.90;;;1.63;100.00;98665.63;5206845;28;20217;-58
2023/01/28 07:55:14;;;;;;;14.37;11.93;;;0.90;99.90;;;1.64;100.00;98662.34;5211745;28;20754;-59
2023/01/28 07:57:54;;;;;;;16.50;12.60;;;0.90;99.90;;;1.66;100.00;98660.91;5216146;28;20292;-58
2023/01/28 08:00:30;;;;;;;14.60;13.00;;;0.90;99.90;;;1.66;100.00;98663.41;5219023;28;20688;-60
2023/01/28 08:03:06;;;;;;;15.90;12.60;;;0.90;99.90;;;1.69;100.00;98657.78;5218691;28;20295;-63
2023/01/28 08:05:42;;;;;;;17.30;13.60;;;0.90;99.90;;;1.70;100.00;98668.03;5206775;28;20190;-59
2023/01/28 08:08:16;;;;;;;18.43;14.70;;;0.90;99.90;;;1.73;100.00;98665.81;5211041;28;20226;-58
2023/01/28 08:10:50;;;;;;;19.00;14.80;;;1.00;99.90;;;1.71;100.00;98669.81;5209275;28;20202;-58
2023/01/28 08:13:24;;;;;;;19.93;15.73;;;1.00;99.90;;;1.74;100.00;98670.13;5209646;28;20227;-59
2023/01/28 08:15:58;;;;;;;17.53;14.97;;;1.00;99.90;;;1.83;100.00;98684.41;5217006;28;20301;-59
2023/01/28 08:18:31;;;;;;;17.63;14.57;;;1.00;99.90;;;1.77;100.00;98690.63;5212290;28;20194;-60
2023/01/28 08:21:05;;;;;;;17.03;14.57;;;1.00;99.90;;;1.84;100.00;98688.75;5214263;28;20210;-59
2023/01/28 08:23:38;;;;;;;16.10;14.20;;;1.10;99.90;;;1.84;100.00;98692.16;5217120;28;20253;-59
2023/01/28 08:26:11;;;;;;;20.23;15.63;;;1.10;99.90;;;1.88;100.00;98688.31;5210396;28;20209;-58
2023/01/28 08:28:45;;;;;;;20.57;16.83;;;1.10;99.90;;;1.92;100.00;98688.78;5216143;28;20702;-61
2023/01/28 08:31:18;;;;;;;17.67;15.10;;;1.10;99.90;;;1.98;100.00;98691.06;5205533;28;20201;-61
2023/01/28 08:33:52;;;;;;;17.83;15.10;;;1.20;99.90;;;2.06;100.00;98686.78;5211605;28;20744;-57
2023/01/28 08:36:25;;;;;;;17.23;15.23;;;1.20;99.90;;;2.07;100.00;98681.91;5211112;28;20200;-58
2023/01/28 08:38:58;;;;;;;17.17;15.47;;;1.20;99.90;;;2.11;100.00;98699.13;5216997;28;20300;-61
2023/01/28 08:41:31;;;;;;;17.80;15.00;;;1.30;99.90;;;2.15;100.00;98686.13;5209502;28;20208;-61
2023/01/28 08:44:05;;;;;;;17.33;14.40;;;1.30;99.90;;;2.22;100.00;98688.50;5206120;28;20233;-60
2023/01/28 08:46:39;;;;;;;19.40;15.27;;;1.40;99.90;;;2.38;98.81;98691.00;5203783;28;20212;-60
2023/01/28 08:49:12;;;;;;;17.53;15.47;;;1.50;99.90;;;2.39;98.74;98689.34;5210054;28;20209;-58
2023/01/28 08:51:45;;;;;;;17.40;14.63;;;1.60;99.90;;;2.46;98.39;98690.13;5213349;28;20696;-61
2023/01/28 08:54:18;;;;;;;17.37;14.33;;;1.60;99.90;;;2.43;99.14;98692.34;5214597;28;20222;-58
2023/01/28 08:56:51;;;;;;;16.33;14.27;;;1.60;99.90;;;2.42;97.40;98693.06;5207057;28;20260;-61
2023/01/28 08:59:25;;;;;;;17.03;14.00;;;1.60;99.90;;;2.44;97.86;98700.81;5218355;28;20209;-58
2023/01/28 09:01:58;;;;;;;20.17;15.17;;;1.60;99.90;;;2.46;97.32;98701.84;5215261;28;20213;-60
2023/01/28 09:04:31;;;;;;;17.97;15.40;;;1.60;99.90;;;2.51;96.69;98699.78;5209830;28;20321;-62
2023/01/28 09:07:04;;;;;;;17.07;15.00;;;1.60;99.90;;;2.52;96.72;98701.56;5214536;28;20233;-58
2023/01/28 09:09:37;;;;;;;18.40;15.27;;;1.70;99.90;;;2.67;94.79;98701.50;5214559;28;20558;-58
2023/01/28 09:12:10;;;;;;;17.87;15.53;;;1.80;99.90;;;2.65;94.53;98702.06;5214475;28;20216;-60
2023/01/28 09:14:45;;;;;;;18.27;15.57;;;1.80;99.90;;;2.68;94.25;98704.91;5208714;28;20244;-60
2023/01/28 09:17:18;;;;;;;19.50;15.23;;;1.80;99.90;;;2.64;94.15;98708.75;5219173;28;20208;-58
2023/01/28 09:19:51;;;;;;;18.20;15.70;;;1.80;99.90;;;2.60;94.02;98709.16;5210484;28;20202;-60
2023/01/28 09:22:24;;;;;;;17.80;15.27;;;1.80;99.90;;;2.68;94.42;98710.84;5211189;28;20206;-60
2023/01/28 09:24:57;;;;;;;16.90;15.10;;;1.80;99.90;;;2.67;93.59;98701.50;5214931;28;20226;-60
2023/01/28 09:27:30;;;;;;;20.17;16.20;;;1.80;99.90;;;2.71;93.65;98708.63;5204252;28;20255;-60
2023/01/28 09:30:06;;;;;;;16.97;15.17;;;1.90;99.90;;;2.82;93.32;98711.34;5213401;28;20283;-60
2023/01/28 09:32:40;;;;;;;17.37;15.20;;;1.90;99.90;;;2.79;89.28;98721.16;5214351;28;20665;-59
2023/01/28 09:35:14;;;;;;;20.77;17.37;;;2.00;99.90;;;2.70;91.55;98711.00;5212977;28;20223;-60
2023/01/28 09:37:47;;;;;;;20.50;16.33;;;2.00;99.90;;;2.63;91.15;98722.13;5206807;28;20201;-60
2023/01/28 09:40:29;;;;;;;20.90;16.63;;;2.00;99.90;;;2.70;91.41;98721.09;5202715;28;20209;-61
2023/01/28 09:43:36;;;;;;;19.53;16.33;;;2.00;99.90;;;2.61;90.53;98727.75;5210075;28;20193;-60
2023/01/28 09:46:14;;;;;;;20.33;16.03;;;2.00;99.90;;;2.75;89.35;98730.03;5204962;28;20542;-60
2023/01/28 09:48:51;;;;;;;19.27;15.13;;;2.10;99.90;;;2.73;91.71;98730.63;5210154;28;20233;-61
2023/01/28 09:51:32;;;;;;;18.97;15.80;;;2.00;99.90;;;2.52;90.53;98735.28;5210843;28;20695;-60
2023/01/28 09:54:17;;;;;;;18.23;15.63;;;2.00;99.90;;;2.65;90.83;98738.28;5213860;28;20611;-59
2023/01/28 09:56:58;;;;;;;19.13;15.67;;;2.10;99.90;;;2.82;91.21;98747.56;5209040;28;20201;-63
2023/01/28 09:59:35;;;;;;;18.77;15.47;;;2.10;99.90;;;2.85;90.41;98741.94;5208977;28;20787;-61
2023/01/28 10:02:37;;;;;;;18.93;15.87;;;2.20;99.90;;;2.76;88.88;98741.91;5206584;28;20385;-61
2023/01/28 10:05:22;;;;;;;19.37;15.60;;;2.10;99.90;;;2.71;87.75;98733.88;5217308;28;20227;-61
2023/01/28 10:08:11;;;;;;;18.97;16.03;;;2.10;99.90;;;2.77;89.53;98738.63;5217865;28;20687;-60
2023/01/28 10:10:50;;;;;;;19.27;15.47;;;2.10;99.90;;;2.56;89.32;98732.31;5217407;28;20679;-61
2023/01/28 10:13:36;;;;;;;19.77;16.33;;;2.00;99.90;;;2.69;89.31;98735.38;5210788;28;20224;-62
2023/01/28 10:16:20;;;;;;;21.73;16.50;;;2.00;99.90;;;2.81;88.87;98738.22;5217166;28;20216;-61
2023/01/28 10:19:01;;;;;;;18.23;16.17;;;2.10;99.90;;;2.56;89.18;98727.28;5212198;28;20204;-61
2023/01/28 10:21:40;;;;;;;19.57;15.77;;;2.00;99.90;;;2.46;88.99;98733.03;5211360;28;20722;-60
2023/01/28 10:24:18;;;;;;;18.17;16.20;;;2.00;99.90;;;2.37;90.01;98729.53;5212431;28;20239;-60
2023/01/28 10:26:52;;;;;;;20.20;15.73;;;1.90;99.90;;;2.44;89.67;98728.56;5201680;28;20212;-60
2023/01/28 10:29:29;;;;;;;19.70;16.63;;;1.90;99.90;;;2.39;91.11;98727.19;5210121;28;20245;-61
2023/01/28 10:32:21;;;;;;;19.87;15.87;;;1.90;99.90;;;2.55;91.28;98720.44;5208782;28;20201;-61
2023/01/28 10:34:58;;;;;;;19.63;16.27;;;1.90;99.90;;;2.68;90.90;98725.97;5216855;28;20223;-61
2023/01/28 10:37:35;;;;;;;19.47;16.33;;;2.00;99.90;;;2.71;90.33;98721.25;5214723;28;20261;-61
2023/01/28 10:40:15;;;;;;;19.90;16.60;;;2.10;99.90;;;2.55;90.58;98729.63;5213881;28;20205;-61
2023/01/28 10:42:49;;;;;;;19.67;16.00;;;2.00;99.90;;;2.37;90.84;98719.44;5209467;28;20578;-61
2023/01/28 10:45:25;;;;;;;20.63;16.57;;;1.90;99.90;;;2.37;91.77;98721.09;5212782;28;20223;-61
2023/01/28 10:48:04;;;;;;;21.03;15.73;;;1.80;99.90;;;2.48;91.45;98723.06;5212039;28;20238;-60
2023/01/28 10:50:38;;;;;;;19.23;15.43;;;1.90;99.90;;;2.55;89.92;98715.41;5216986;28;20318;-61
2023/01/28 10:53:11;;;;;;;19.13;15.80;;;2.00;99.90;;;2.53;90.42;98721.91;5214241;28;20198;-61
2023/01/28 10:55:50;;;;;;;19.70;16.47;;;2.00;99.90;;;2.58;91.14;98720.75;5214752;28;20240;-61
2023/01/28 10:58:27;;;;;;;21.13;15.73;;;2.00;99.90;;;2.71;91.34;98723.78;5216072;28;20608;-59
2023/01/28 11:01:05;;;;;;;20.07;16.27;;;2.00;99.90;;;2.44;89.37;98721.00;5213236;28;20208;-61
2023/01/28 11:03:38;;;;;;;23.20;16.23;;;1.90;99.90;;;2.45;90.30;98718.59;5214088;28;20224;-61
2023/01/28 11:06:27;;;;;;;21.10;16.17;;;1.90;99.90;;;2.66;89.47;98722.44;5211938;28;20666;-59
2023/01/28 11:09:00;;;;;;;22.00;17.13;;;2.00;99.90;;;2.93;89.18;98728.47;5210797;28;20267;-61
2023/01/28 11:11:33;;;;;;;21.03;16.63;;;2.20;99.90;;;2.80;90.67;98733.00;5206574;28;20924;-61
2023/01/28 11:14:20;;;;;;;19.53;15.43;;;2.10;99.90;;;2.91;89.50;98730.81;5213183;28;20619;-61
2023/01/28 11:16:56;;;;;;;22.17;16.80;;;2.10;99.90;;;2.88;90.23;98733.03;5209882;28;20336;-61
2023/01/28 11:19:35;;;;;;;22.97;17.73;;;2.20;99.90;;;2.86;90.45;98734.53;5207988;28;20734;-61
2023/01/28 11:22:26;;;;;;;22.67;17.60;;;2.10;99.90;;;2.95;89.79;98734.56;5207142;28;20576;-60
2023/01/28 11:25:00;;;;;;;21.43;16.90;;;2.20;99.90;;;3.01;90.43;98724.19;5212387;28;20689;-58